createdAt,value
2018-05-09T00:00:28.680Z,20.23
2018-05-09T00:01:28.702Z,20.18
2018-05-09T00:02:28.752Z,20.25
2018-05-09T00:03:28.651Z,20.25
2018-05-09T00:04:28.574Z,20.14
2018-05-09T00:05:28.570Z,20.15
2018-05-09T00:06:28.548Z,20.09
2018-05-09T00:07:28.677Z,20.19
2018-05-09T00:08:28.523Z,20.09
2018-05-09T00:09:28.577Z,20.19
2018-05-09T00:10:28.430Z,20.18
2018-05-09T00:11:28.511Z,20.05
2018-05-09T00:12:28.397Z,20.12
2018-05-09T00:13:28.464Z,20.09
2018-05-09T00:14:28.373Z,20.15
2018-05-09T00:15:28.351Z,20.23
2018-05-09T00:16:28.367Z,20.22
2018-05-09T00:17:28.367Z,20.23
2018-05-09T00:18:28.306Z,20.08
2018-05-09T00:19:28.226Z,20.15
2018-05-09T00:20:28.228Z,20.12
2018-05-09T00:21:28.180Z,20.08
2018-05-09T00:22:28.204Z,20.00
2018-05-09T00:23:28.196Z,20.05
2018-05-09T00:24:28.160Z,20.08
2018-05-09T00:25:28.175Z,20.02
2018-05-09T00:26:28.079Z,20.04
2018-05-09T00:27:28.094Z,20.02
2018-05-09T00:28:28.169Z,20.07
2018-05-09T00:29:27.990Z,20.00
2018-05-09T00:30:27.990Z,19.93
2018-05-09T00:31:27.960Z,19.96
2018-05-09T00:32:27.935Z,19.90
2018-05-09T00:33:28.024Z,19.82
2018-05-09T00:34:27.929Z,19.92
2018-05-09T00:35:27.915Z,19.94
2018-05-09T00:36:27.883Z,19.87
2018-05-09T00:37:27.830Z,19.81
2018-05-09T00:38:27.872Z,19.93
2018-05-09T00:39:28.382Z,19.82
2018-05-09T00:40:27.805Z,19.86
2018-05-09T00:41:27.703Z,19.89
2018-05-09T00:42:27.686Z,19.92
2018-05-09T00:43:27.654Z,19.81
2018-05-09T00:44:27.687Z,19.87
2018-05-09T00:45:27.606Z,19.81
2018-05-09T00:46:27.714Z,19.96
2018-05-09T00:47:27.585Z,19.74
2018-05-09T00:48:27.539Z,19.74
2018-05-09T00:49:27.559Z,19.84
2018-05-09T00:50:27.492Z,19.74
2018-05-09T00:51:27.513Z,19.75
2018-05-09T00:52:27.477Z,19.75
2018-05-09T00:53:27.475Z,19.82
2018-05-09T00:54:27.434Z,19.82
2018-05-09T00:55:27.403Z,19.72
2018-05-09T00:56:27.356Z,19.77
2018-05-09T00:57:27.369Z,19.86
2018-05-09T00:58:27.302Z,19.78
2018-05-09T00:59:27.330Z,19.75
2018-05-09T01:00:27.293Z,19.79
2018-05-09T01:01:27.307Z,19.74
2018-05-09T01:02:27.226Z,19.84
2018-05-09T01:03:27.237Z,19.79
2018-05-09T01:04:27.227Z,19.75
2018-05-09T01:05:27.135Z,19.71
2018-05-09T01:06:27.146Z,19.77
2018-05-09T01:07:27.178Z,19.77
2018-05-09T01:08:27.159Z,19.78
2018-05-09T01:09:27.132Z,19.81
2018-05-09T01:10:27.073Z,19.71
2018-05-09T01:11:27.003Z,19.75
2018-05-09T01:12:27.030Z,19.74
2018-05-09T01:13:27.137Z,19.70
2018-05-09T01:14:26.930Z,19.71
2018-05-09T01:15:26.912Z,19.81
2018-05-09T01:16:26.972Z,19.84
2018-05-09T01:17:26.887Z,19.74
2018-05-09T01:18:26.900Z,19.70
2018-05-09T01:19:26.887Z,19.64
2018-05-09T01:20:26.888Z,19.57
2018-05-09T01:21:26.797Z,19.59
2018-05-09T01:22:26.724Z,19.60
2018-05-09T01:23:26.750Z,19.62
2018-05-09T01:24:26.715Z,19.64
2018-05-09T01:25:26.742Z,19.60
2018-05-09T01:26:26.700Z,19.62
2018-05-09T01:27:26.653Z,19.63
2018-05-09T01:28:26.589Z,19.60
2018-05-09T01:29:26.622Z,19.53
2018-05-09T01:30:26.600Z,19.53
2018-05-09T01:31:26.566Z,19.56
2018-05-09T01:32:26.551Z,19.53
2018-05-09T01:33:26.549Z,19.53
2018-05-09T01:34:26.454Z,19.56
2018-05-09T01:35:26.434Z,19.50
2018-05-09T01:36:26.460Z,19.49
2018-05-09T01:37:26.393Z,19.52
2018-05-09T01:38:26.424Z,19.49
2018-05-09T01:39:26.393Z,19.52
2018-05-09T01:40:26.368Z,19.49
2018-05-09T01:41:26.386Z,19.53
2018-05-09T01:42:26.261Z,19.45
2018-05-09T01:43:26.421Z,19.47
2018-05-09T01:44:26.252Z,19.44
2018-05-09T01:45:26.221Z,19.50
2018-05-09T01:46:26.225Z,19.41
2018-05-09T01:47:26.273Z,19.45
2018-05-09T01:48:26.207Z,19.44
2018-05-09T01:49:26.124Z,19.44
2018-05-09T01:50:26.085Z,19.39
2018-05-09T01:51:26.046Z,19.37
2018-05-09T01:52:26.104Z,19.39
2018-05-09T01:53:26.062Z,19.35
2018-05-09T01:54:25.989Z,19.34
2018-05-09T01:55:26.063Z,19.32
2018-05-09T01:56:26.000Z,19.34
2018-05-09T01:57:25.902Z,19.32
2018-05-09T01:58:25.924Z,19.27
2018-05-09T01:59:25.872Z,19.30
2018-05-09T02:00:25.928Z,19.31
2018-05-09T02:01:25.807Z,19.30
2018-05-09T02:02:25.779Z,19.30
2018-05-09T02:03:25.754Z,19.32
2018-05-09T02:04:25.763Z,19.23
2018-05-09T02:05:25.715Z,19.34
2018-05-09T02:06:25.685Z,19.26
2018-05-09T02:07:25.739Z,19.23
2018-05-09T02:08:25.666Z,19.24
2018-05-09T02:09:25.700Z,19.24
2018-05-09T02:10:25.592Z,19.30
2018-05-09T02:11:25.580Z,19.30
2018-05-09T02:12:25.550Z,19.26
2018-05-09T02:13:25.590Z,19.26
2018-05-09T02:14:25.489Z,19.24
2018-05-09T02:15:25.507Z,19.24
2018-05-09T02:16:25.445Z,19.19
2018-05-09T02:17:25.477Z,19.19
2018-05-09T02:18:25.449Z,19.12
2018-05-09T02:19:25.415Z,19.09
2018-05-09T02:20:25.410Z,19.20
2018-05-09T02:21:25.389Z,19.20
2018-05-09T02:22:25.338Z,19.22
2018-05-09T02:23:25.347Z,19.30
2018-05-09T02:24:25.291Z,19.22
2018-05-09T02:25:25.267Z,19.19
2018-05-09T02:26:25.240Z,19.19
2018-05-09T02:27:25.180Z,19.19
2018-05-09T02:28:25.160Z,19.09
2018-05-09T02:29:25.185Z,19.09
2018-05-09T02:30:25.191Z,19.12
2018-05-09T02:31:25.098Z,19.08
2018-05-09T02:32:25.149Z,19.15
2018-05-09T02:33:25.039Z,19.15
2018-05-09T02:34:25.075Z,19.07
2018-05-09T02:35:24.993Z,19.04
2018-05-09T02:36:24.968Z,19.16
2018-05-09T02:37:24.968Z,19.13
2018-05-09T02:38:24.928Z,19.08
2018-05-09T02:39:24.913Z,18.96
2018-05-09T02:40:24.892Z,19.07
2018-05-09T02:41:24.876Z,19.07
2018-05-09T02:42:24.817Z,19.05
2018-05-09T02:43:24.901Z,19.05
2018-05-09T02:44:24.801Z,19.01
2018-05-09T02:45:24.771Z,19.01
2018-05-09T02:46:24.771Z,19.07
2018-05-09T02:47:24.768Z,19.09
2018-05-09T02:48:24.759Z,19.05
2018-05-09T02:49:24.731Z,19.08
2018-05-09T02:50:24.655Z,19.05
2018-05-09T02:51:24.703Z,19.05
2018-05-09T02:52:24.643Z,18.91
2018-05-09T02:53:24.603Z,18.97
2018-05-09T02:54:24.556Z,18.91
2018-05-09T02:55:24.532Z,18.88
2018-05-09T02:56:24.555Z,18.85
2018-05-09T02:57:24.460Z,18.83
2018-05-09T02:58:24.507Z,18.86
2018-05-09T02:59:24.416Z,18.81
2018-05-09T03:00:24.420Z,18.71
2018-05-09T03:01:24.463Z,18.78
2018-05-09T03:02:24.397Z,18.70
2018-05-09T03:03:24.333Z,18.68
2018-05-09T03:04:24.373Z,18.74
2018-05-09T03:05:24.267Z,18.78
2018-05-09T03:06:24.247Z,18.79
2018-05-09T03:07:24.210Z,18.66
2018-05-09T03:08:24.203Z,18.60
2018-05-09T03:09:24.181Z,18.60
2018-05-09T03:10:24.173Z,18.56
2018-05-09T03:11:24.217Z,18.54
2018-05-09T03:12:24.133Z,18.54
2018-05-09T03:13:24.064Z,18.54
2018-05-09T03:14:24.126Z,18.43
2018-05-09T03:15:24.041Z,18.45
2018-05-09T03:16:23.999Z,18.39
2018-05-09T03:17:23.979Z,18.36
2018-05-09T03:18:23.946Z,18.42
2018-05-09T03:19:23.983Z,18.33
2018-05-09T03:20:23.945Z,18.38
2018-05-09T03:21:23.967Z,18.30
2018-05-09T03:22:23.984Z,18.33
2018-05-09T03:23:23.829Z,18.33
2018-05-09T03:24:23.862Z,18.27
2018-05-09T03:25:23.791Z,18.30
2018-05-09T03:26:23.876Z,18.21
2018-05-09T03:27:23.741Z,18.17
2018-05-09T03:28:23.708Z,18.21
2018-05-09T03:29:23.737Z,18.30
2018-05-09T03:30:23.673Z,18.23
2018-05-09T03:31:23.697Z,18.17
2018-05-09T03:32:23.681Z,18.18
2018-05-09T03:33:23.623Z,18.12
2018-05-09T03:34:23.617Z,18.15
2018-05-09T03:35:23.580Z,18.15
2018-05-09T03:36:23.518Z,18.09
2018-05-09T03:37:23.516Z,18.12
2018-05-09T03:38:23.512Z,18.11
2018-05-09T03:39:23.473Z,18.09
2018-05-09T03:40:23.459Z,18.11
2018-05-09T03:41:23.385Z,18.08
2018-05-09T03:42:23.433Z,18.02
2018-05-09T03:43:23.436Z,18.12
2018-05-09T03:44:23.396Z,17.97
2018-05-09T03:45:23.337Z,17.87
2018-05-09T03:46:23.311Z,17.78
2018-05-09T03:47:23.291Z,17.75
2018-05-09T03:48:23.255Z,17.72
2018-05-09T03:49:23.180Z,17.65
2018-05-09T03:50:23.214Z,17.66
2018-05-09T03:51:23.232Z,17.69
2018-05-09T03:52:23.114Z,17.72
2018-05-09T03:53:23.150Z,17.71
2018-05-09T03:54:23.144Z,17.63
2018-05-09T03:55:23.044Z,17.56
2018-05-09T03:56:23.065Z,17.56
2018-05-09T03:57:23.083Z,17.65
2018-05-09T03:58:23.036Z,17.50
2018-05-09T03:59:23.012Z,17.46
2018-05-09T04:00:22.950Z,17.35
2018-05-09T04:01:23.008Z,17.41
2018-05-09T04:02:24.500Z,17.35
2018-05-09T04:03:22.838Z,17.38
2018-05-09T04:04:22.817Z,17.32
2018-05-09T04:05:22.797Z,17.38
2018-05-09T04:06:22.777Z,17.37
2018-05-09T04:07:22.802Z,17.32
2018-05-09T04:08:22.711Z,17.34
2018-05-09T04:09:22.689Z,17.47
2018-05-09T04:10:22.675Z,17.43
2018-05-09T04:11:22.642Z,17.35
2018-05-09T04:12:22.610Z,17.39
2018-05-09T04:13:22.632Z,17.35
2018-05-09T04:14:22.660Z,17.30
2018-05-09T04:15:22.619Z,17.19
2018-05-09T04:16:22.518Z,17.19
2018-05-09T04:17:22.520Z,17.14
2018-05-09T04:18:22.490Z,17.14
2018-05-09T04:19:22.443Z,17.01
2018-05-09T04:20:22.429Z,17.09
2018-05-09T04:21:22.390Z,17.01
2018-05-09T04:22:22.367Z,17.09
2018-05-09T04:23:22.354Z,17.04
2018-05-09T04:24:22.427Z,16.95
2018-05-09T04:25:22.293Z,16.92
2018-05-09T04:26:22.271Z,16.99
2018-05-09T04:27:22.422Z,16.97
2018-05-09T04:28:22.277Z,16.95
2018-05-09T04:29:22.292Z,16.94
2018-05-09T04:30:22.165Z,16.88
2018-05-09T04:31:22.212Z,16.99
2018-05-09T04:32:22.162Z,16.99
2018-05-09T04:33:22.120Z,17.07
2018-05-09T04:34:22.099Z,17.10
2018-05-09T04:35:22.089Z,16.98
2018-05-09T04:36:22.096Z,17.14
2018-05-09T04:37:22.079Z,16.97
2018-05-09T04:38:23.041Z,16.99
2018-05-09T04:39:24.856Z,16.95
2018-05-09T04:40:21.959Z,16.94
2018-05-09T04:41:21.886Z,16.99
2018-05-09T04:42:21.921Z,16.95
2018-05-09T04:43:21.869Z,16.97
2018-05-09T04:44:21.817Z,16.98
2018-05-09T04:45:21.785Z,17.14
2018-05-09T04:46:21.767Z,17.01
2018-05-09T04:47:21.743Z,17.10
2018-05-09T04:48:21.726Z,17.14
2018-05-09T04:49:21.748Z,17.14
2018-05-09T04:50:21.758Z,17.10
2018-05-09T04:51:21.659Z,17.17
2018-05-09T04:52:21.623Z,17.19
2018-05-09T04:53:21.582Z,17.22
2018-05-09T04:54:21.562Z,17.17
2018-05-09T04:55:21.547Z,17.14
2018-05-09T04:56:21.517Z,17.24
2018-05-09T04:57:23.433Z,17.28
2018-05-09T04:58:21.516Z,17.30
2018-05-09T04:59:21.438Z,17.27
2018-05-09T05:00:21.469Z,17.30
2018-05-09T05:01:21.485Z,17.30
2018-05-09T05:02:21.431Z,17.32
2018-05-09T05:03:21.411Z,17.25
2018-05-09T05:04:21.382Z,17.37
2018-05-09T05:05:21.296Z,17.34
2018-05-09T05:06:21.321Z,17.39
2018-05-09T05:07:21.292Z,17.46
2018-05-09T05:08:21.263Z,17.52
2018-05-09T05:09:21.252Z,17.46
2018-05-09T05:10:21.244Z,17.49
2018-05-09T05:11:21.213Z,17.50
2018-05-09T05:12:21.176Z,17.63
2018-05-09T05:13:21.145Z,17.59
2018-05-09T05:14:21.123Z,17.62
2018-05-09T05:15:21.108Z,17.73
2018-05-09T05:16:21.082Z,17.78
2018-05-09T05:17:21.033Z,17.76
2018-05-09T05:18:21.042Z,17.76
2018-05-09T05:19:21.024Z,17.86
2018-05-09T05:20:20.981Z,17.79
2018-05-09T05:21:20.963Z,17.87
2018-05-09T05:22:20.962Z,17.83
2018-05-09T05:23:20.940Z,17.94
2018-05-09T05:24:20.862Z,17.96
2018-05-09T05:25:20.856Z,17.96
2018-05-09T05:26:20.824Z,18.06
2018-05-09T05:27:20.774Z,18.09
2018-05-09T05:28:20.777Z,18.15
2018-05-09T05:29:20.760Z,18.21
2018-05-09T05:30:20.687Z,18.20
2018-05-09T05:31:20.688Z,18.23
2018-05-09T05:32:20.673Z,18.28
2018-05-09T05:33:20.633Z,18.42
2018-05-09T05:34:20.624Z,18.52
2018-05-09T05:35:20.609Z,18.52
2018-05-09T05:36:20.520Z,18.61
2018-05-09T05:37:20.499Z,18.71
2018-05-09T05:38:20.499Z,18.71
2018-05-09T05:39:20.461Z,18.71
2018-05-09T05:40:20.425Z,18.64
2018-05-09T05:41:20.406Z,18.82
2018-05-09T05:42:20.427Z,18.76
2018-05-09T05:43:20.415Z,18.74
2018-05-09T05:44:20.369Z,18.74
2018-05-09T05:45:20.435Z,18.78
2018-05-09T05:46:20.333Z,18.74
2018-05-09T05:47:20.313Z,18.82
2018-05-09T05:48:20.299Z,18.86
2018-05-09T05:49:20.254Z,18.93
2018-05-09T05:50:20.211Z,18.91
2018-05-09T05:51:20.222Z,18.97
2018-05-09T05:52:20.181Z,18.97
2018-05-09T05:53:20.176Z,18.98
2018-05-09T05:54:20.145Z,19.00
2018-05-09T05:55:20.086Z,19.01
2018-05-09T05:56:20.086Z,19.00
2018-05-09T05:57:20.060Z,19.07
2018-05-09T05:58:20.033Z,19.12
2018-05-09T05:59:20.040Z,19.09
2018-05-09T06:00:19.980Z,19.24
2018-05-09T06:01:19.999Z,19.26
2018-05-09T06:02:19.957Z,19.24
2018-05-09T06:03:19.937Z,19.30
2018-05-09T06:04:19.895Z,19.30
2018-05-09T06:05:19.884Z,19.30
2018-05-09T06:06:19.887Z,19.38
2018-05-09T06:07:19.828Z,19.42
2018-05-09T06:08:19.797Z,19.52
2018-05-09T06:09:19.796Z,19.49
2018-05-09T06:10:19.750Z,19.52
2018-05-09T06:11:20.503Z,19.56
2018-05-09T06:12:19.701Z,19.62
2018-05-09T06:13:19.669Z,19.67
2018-05-09T06:14:19.659Z,19.74
2018-05-09T06:15:21.492Z,19.77
2018-05-09T06:16:22.503Z,19.74
2018-05-09T06:17:21.683Z,19.89
2018-05-09T06:18:21.524Z,19.89
2018-05-09T06:19:19.559Z,19.97
2018-05-09T06:20:19.501Z,19.97
2018-05-09T06:21:19.492Z,20.02
2018-05-09T06:22:19.446Z,20.02
2018-05-09T06:23:21.098Z,20.07
2018-05-09T06:24:19.555Z,20.02
2018-05-09T06:25:19.405Z,20.08
2018-05-09T06:26:19.356Z,20.17
2018-05-09T06:27:19.357Z,20.25
2018-05-09T06:28:19.324Z,20.26
2018-05-09T06:29:19.340Z,20.26
2018-05-09T06:30:19.262Z,20.37
2018-05-09T06:31:19.261Z,20.39
2018-05-09T06:32:19.243Z,20.41
2018-05-09T06:33:19.198Z,20.48
2018-05-09T06:34:19.188Z,20.48
2018-05-09T06:35:19.157Z,20.50
2018-05-09T06:36:19.138Z,20.63
2018-05-09T06:37:19.119Z,20.68
2018-05-09T06:38:19.081Z,20.80
2018-05-09T06:39:19.117Z,20.79
2018-05-09T06:40:19.034Z,20.93
2018-05-09T06:41:19.003Z,20.97
2018-05-09T06:42:18.993Z,20.95
2018-05-09T06:43:20.510Z,21.08
2018-05-09T06:44:18.929Z,21.08
2018-05-09T06:45:18.968Z,21.07
2018-05-09T06:46:19.013Z,21.13
2018-05-09T06:47:18.896Z,21.14
2018-05-09T06:48:18.843Z,21.14
2018-05-09T06:49:18.824Z,21.16
2018-05-09T06:50:18.801Z,21.22
2018-05-09T06:51:18.774Z,21.20
2018-05-09T06:52:18.762Z,21.25
2018-05-09T06:53:18.734Z,21.30
2018-05-09T06:54:18.728Z,21.32
2018-05-09T06:55:18.694Z,21.29
2018-05-09T06:56:18.677Z,21.45
2018-05-09T06:57:18.646Z,21.50
2018-05-09T06:58:19.036Z,21.59
2018-05-09T06:59:18.592Z,21.74
2018-05-09T07:00:18.568Z,21.78
2018-05-09T07:01:18.555Z,21.78
2018-05-09T07:02:18.590Z,21.82
2018-05-09T07:03:18.502Z,21.85
2018-05-09T07:04:18.489Z,21.93
2018-05-09T07:05:18.461Z,21.93
2018-05-09T07:06:18.462Z,22.01
2018-05-09T07:07:18.416Z,22.13
2018-05-09T07:08:18.395Z,22.18
2018-05-09T07:09:18.383Z,22.23
2018-05-09T07:10:18.350Z,22.23
2018-05-09T07:11:18.324Z,22.25
2018-05-09T07:12:20.964Z,22.31
2018-05-09T07:13:18.269Z,22.34
2018-05-09T07:14:18.258Z,22.37
2018-05-09T07:15:18.260Z,22.34
2018-05-09T07:16:18.222Z,22.43
2018-05-09T07:17:18.197Z,22.44
2018-05-09T07:18:18.171Z,22.44
2018-05-09T07:19:18.188Z,22.59
2018-05-09T07:20:21.082Z,22.55
2018-05-09T07:21:18.095Z,22.74
2018-05-09T07:22:20.025Z,22.71
2018-05-09T07:23:18.063Z,22.67
2018-05-09T07:24:18.018Z,22.71
2018-05-09T07:25:18.011Z,22.70
2018-05-09T07:26:17.991Z,22.76
2018-05-09T07:27:17.999Z,22.86
2018-05-09T07:28:17.936Z,22.96
2018-05-09T07:29:17.934Z,23.01
2018-05-09T07:30:17.941Z,23.01
2018-05-09T07:31:17.865Z,22.99
2018-05-09T07:32:17.849Z,23.01
2018-05-09T07:33:17.818Z,23.10
2018-05-09T07:34:17.824Z,23.10
2018-05-09T07:35:17.839Z,23.10
2018-05-09T07:36:17.759Z,23.15
2018-05-09T07:37:17.748Z,23.18
2018-05-09T07:38:17.710Z,23.14
2018-05-09T07:39:17.695Z,23.23
2018-05-09T07:40:17.673Z,23.08
2018-05-09T07:41:17.662Z,23.23
2018-05-09T07:42:17.712Z,23.14
2018-05-09T07:43:17.600Z,23.23
2018-05-09T07:44:17.597Z,23.31
2018-05-09T07:45:17.568Z,23.29
2018-05-09T07:46:17.538Z,23.31
2018-05-09T07:47:17.532Z,23.31
2018-05-09T07:48:17.520Z,23.31
2018-05-09T07:49:17.470Z,23.33
2018-05-09T07:50:17.448Z,23.36
2018-05-09T07:51:17.440Z,23.46
2018-05-09T07:52:17.486Z,23.45
2018-05-09T07:53:17.377Z,23.48
2018-05-09T07:54:17.356Z,23.41
2018-05-09T07:55:17.344Z,23.37
2018-05-09T07:56:17.345Z,23.42
2018-05-09T07:57:17.293Z,23.42
2018-05-09T07:58:17.260Z,23.64
2018-05-09T07:59:19.033Z,23.61
2018-05-09T08:00:17.238Z,23.67
2018-05-09T08:01:17.220Z,23.61
2018-05-09T08:02:17.199Z,23.61
2018-05-09T08:03:17.130Z,23.70
2018-05-09T08:04:17.115Z,23.74
2018-05-09T08:05:17.121Z,23.74
2018-05-09T08:06:17.109Z,23.70
2018-05-09T08:07:17.081Z,23.78
2018-05-09T08:08:17.109Z,23.86
2018-05-09T08:09:17.034Z,23.81
2018-05-09T08:10:17.010Z,23.74
2018-05-09T08:11:16.986Z,23.78
2018-05-09T08:12:16.981Z,23.85
2018-05-09T08:13:16.943Z,23.88
2018-05-09T08:14:16.926Z,23.88
2018-05-09T08:15:16.910Z,23.88
2018-05-09T08:16:16.878Z,23.98
2018-05-09T08:17:16.847Z,23.97
2018-05-09T08:18:16.808Z,24.08
2018-05-09T08:19:16.835Z,24.11
2018-05-09T08:20:16.811Z,24.19
2018-05-09T08:21:16.784Z,24.16
2018-05-09T08:22:16.765Z,24.23
2018-05-09T08:23:16.746Z,24.21
2018-05-09T08:24:16.691Z,24.38
2018-05-09T08:25:16.693Z,24.38
2018-05-09T08:26:16.670Z,24.22
2018-05-09T08:27:16.636Z,24.21
2018-05-09T08:28:16.628Z,24.23
2018-05-09T08:29:16.607Z,24.10
2018-05-09T08:30:16.653Z,24.13
2018-05-09T08:31:16.536Z,24.13
2018-05-09T08:32:16.526Z,24.15
2018-05-09T08:33:16.522Z,24.19
2018-05-09T08:34:16.502Z,24.26
2018-05-09T08:35:16.496Z,24.26
2018-05-09T08:36:16.532Z,24.44
2018-05-09T08:37:16.417Z,24.45
2018-05-09T08:38:16.389Z,24.38
2018-05-09T08:39:16.361Z,24.52
2018-05-09T08:40:16.373Z,24.58
2018-05-09T08:41:16.345Z,24.63
2018-05-09T08:42:16.512Z,24.60
2018-05-09T08:43:16.410Z,24.68
2018-05-09T08:44:16.304Z,24.56
2018-05-09T08:45:16.285Z,24.53
2018-05-09T08:46:16.210Z,24.62
2018-05-09T08:47:16.188Z,24.74
2018-05-09T08:48:16.219Z,24.63
2018-05-09T08:49:16.283Z,24.62
2018-05-09T08:50:16.167Z,24.62
2018-05-09T08:51:16.147Z,24.65
2018-05-09T08:52:16.167Z,24.79
2018-05-09T08:53:16.148Z,24.79
2018-05-09T08:54:16.122Z,24.96
2018-05-09T08:55:16.064Z,24.96
2018-05-09T08:56:16.056Z,24.76
2018-05-09T08:57:15.971Z,24.86
2018-05-09T08:58:16.007Z,24.94
2018-05-09T08:59:15.970Z,24.90
2018-05-09T09:00:15.961Z,24.90
2018-05-09T09:01:15.928Z,24.76
2018-05-09T09:02:15.917Z,24.75
2018-05-09T09:03:15.888Z,24.74
2018-05-09T09:04:17.616Z,24.78
2018-05-09T09:05:15.867Z,24.90
2018-05-09T09:06:15.829Z,25.09
2018-05-09T09:07:15.844Z,25.18
2018-05-09T09:08:15.784Z,25.26
2018-05-09T09:09:15.761Z,25.21
2018-05-09T09:10:15.776Z,25.23
2018-05-09T09:11:15.755Z,24.84
2018-05-09T09:12:15.754Z,24.99
2018-05-09T09:13:15.697Z,24.90
2018-05-09T09:14:15.682Z,25.04
2018-05-09T09:15:15.638Z,25.09
2018-05-09T09:16:15.620Z,25.15
2018-05-09T09:17:15.593Z,25.16
2018-05-09T09:18:15.581Z,25.28
2018-05-09T09:19:15.572Z,25.21
2018-05-09T09:20:15.545Z,25.21
2018-05-09T09:21:15.551Z,25.27
2018-05-09T09:22:15.538Z,25.36
2018-05-09T09:23:15.522Z,25.30
2018-05-09T09:24:15.473Z,25.36
2018-05-09T09:25:15.459Z,25.23
2018-05-09T09:26:15.440Z,25.33
2018-05-09T09:27:15.449Z,25.28
2018-05-09T09:28:15.388Z,25.36
2018-05-09T09:29:15.451Z,25.37
2018-05-09T09:30:17.045Z,25.49
2018-05-09T09:31:15.312Z,25.58
2018-05-09T09:32:15.302Z,25.64
2018-05-09T09:33:15.294Z,25.82
2018-05-09T09:34:15.276Z,25.66
2018-05-09T09:35:15.244Z,25.74
2018-05-09T09:36:15.231Z,25.85
2018-05-09T09:37:15.227Z,25.75
2018-05-09T09:38:15.203Z,25.74
2018-05-09T09:39:15.177Z,25.61
2018-05-09T09:40:15.149Z,25.63
2018-05-09T09:41:15.118Z,25.70
2018-05-09T09:42:15.118Z,25.88
2018-05-09T09:43:15.105Z,25.92
2018-05-09T09:44:15.067Z,25.86
2018-05-09T09:45:15.040Z,26.01
2018-05-09T09:46:15.071Z,26.01
2018-05-09T09:47:15.007Z,26.21
2018-05-09T09:48:15.008Z,26.21
2018-05-09T09:49:14.976Z,26.16
2018-05-09T09:50:14.937Z,26.15
2018-05-09T09:51:14.927Z,26.15
2018-05-09T09:52:14.920Z,26.08
2018-05-09T09:53:14.909Z,26.20
2018-05-09T09:54:14.889Z,26.33
2018-05-09T09:55:14.843Z,26.52
2018-05-09T09:56:14.824Z,26.58
2018-05-09T09:57:14.821Z,26.70
2018-05-09T09:58:14.781Z,26.71
2018-05-09T09:59:14.781Z,26.70
2018-05-09T10:00:14.755Z,26.78
2018-05-09T10:01:14.751Z,26.80
2018-05-09T10:02:14.723Z,26.88
2018-05-09T10:03:14.711Z,26.89
2018-05-09T10:04:14.664Z,26.95
2018-05-09T10:05:14.679Z,26.75
2018-05-09T10:06:14.651Z,26.90
2018-05-09T10:07:14.614Z,26.86
2018-05-09T10:08:14.599Z,27.01
2018-05-09T10:09:14.583Z,26.86
2018-05-09T10:10:14.563Z,26.89
2018-05-09T10:11:14.531Z,27.04
2018-05-09T10:12:14.519Z,27.00
2018-05-09T10:13:14.499Z,27.08
2018-05-09T10:14:14.476Z,27.20
2018-05-09T10:15:14.464Z,27.30
2018-05-09T10:16:14.518Z,27.45
2018-05-09T10:17:14.508Z,27.61
2018-05-09T10:18:14.401Z,27.66
2018-05-09T10:19:14.382Z,27.70
2018-05-09T10:20:14.358Z,27.75
2018-05-09T10:21:14.355Z,27.78
2018-05-09T10:22:14.330Z,27.95
2018-05-09T10:23:14.363Z,27.95
2018-05-09T10:24:14.263Z,28.09
2018-05-09T10:25:14.302Z,28.05
2018-05-09T10:26:14.278Z,27.91
2018-05-09T10:27:14.243Z,27.90
2018-05-09T10:28:14.223Z,28.09
2018-05-09T10:29:14.198Z,27.98
2018-05-09T10:30:14.183Z,27.72
2018-05-09T10:31:14.169Z,27.72
2018-05-09T10:32:14.136Z,27.60
2018-05-09T10:33:14.120Z,27.52
2018-05-09T10:34:14.106Z,27.66
2018-05-09T10:35:14.106Z,27.75
2018-05-09T10:36:14.079Z,28.03
2018-05-09T10:37:14.054Z,28.12
2018-05-09T10:38:14.031Z,28.06
2018-05-09T10:39:14.007Z,28.09
2018-05-09T10:40:14.013Z,27.87
2018-05-09T10:41:13.997Z,27.73
2018-05-09T10:42:13.979Z,27.83
2018-05-09T10:43:13.947Z,27.85
2018-05-09T10:44:13.919Z,27.97
2018-05-09T10:45:13.932Z,28.03
2018-05-09T10:46:13.881Z,27.95
2018-05-09T10:47:13.872Z,28.15
2018-05-09T10:48:13.859Z,28.10
2018-05-09T10:49:13.827Z,27.97
2018-05-09T10:50:13.814Z,28.15
2018-05-09T10:51:13.804Z,28.28
2018-05-09T10:52:13.795Z,28.13
2018-05-09T10:53:13.758Z,28.31
2018-05-09T10:54:13.749Z,28.42
2018-05-09T10:55:13.720Z,28.49
2018-05-09T10:56:13.709Z,28.71
2018-05-09T10:57:13.705Z,28.52
2018-05-09T10:58:13.677Z,28.38
2018-05-09T10:59:13.652Z,28.59
2018-05-09T11:00:13.630Z,28.69
2018-05-09T11:01:13.605Z,28.79
2018-05-09T11:02:13.606Z,28.83
2018-05-09T11:03:13.608Z,28.86
2018-05-09T11:04:13.574Z,28.83
2018-05-09T11:05:13.547Z,28.98
2018-05-09T11:06:13.530Z,29.21
2018-05-09T11:07:13.541Z,29.21
2018-05-09T11:08:13.465Z,28.79
2018-05-09T11:09:13.485Z,28.42
2018-05-09T11:10:13.456Z,28.37
2018-05-09T11:11:13.433Z,28.50
2018-05-09T11:12:13.421Z,28.57
2018-05-09T11:13:13.401Z,28.72
2018-05-09T11:14:13.416Z,28.91
2018-05-09T11:15:13.383Z,29.22
2018-05-09T11:16:13.353Z,29.44
2018-05-09T11:17:13.315Z,29.54
2018-05-09T11:18:13.310Z,29.77
2018-05-09T11:19:13.306Z,29.98
2018-05-09T11:20:13.290Z,30.08
2018-05-09T11:21:13.260Z,30.02
2018-05-09T11:22:13.246Z,30.13
2018-05-09T11:23:13.235Z,30.26
2018-05-09T11:24:13.204Z,30.29
2018-05-09T11:25:13.185Z,30.62
2018-05-09T11:26:13.175Z,31.23
2018-05-09T11:27:13.166Z,31.45
2018-05-09T11:28:13.147Z,32.13
2018-05-09T11:29:13.118Z,32.82
2018-05-09T11:30:13.117Z,32.82
2018-05-09T11:31:13.061Z,32.88
2018-05-09T11:32:13.091Z,33.33
2018-05-09T11:33:13.105Z,33.36
2018-05-09T11:34:13.060Z,33.55
2018-05-09T11:35:13.061Z,33.44
2018-05-09T11:36:14.541Z,33.70
2018-05-09T11:37:15.577Z,34.08
2018-05-09T11:38:12.997Z,34.34
2018-05-09T11:39:12.966Z,33.91
2018-05-09T11:40:12.956Z,33.73
2018-05-09T11:41:12.937Z,33.91
2018-05-09T11:42:15.525Z,34.40
2018-05-09T11:43:12.916Z,34.18
2018-05-09T11:44:12.871Z,34.16
2018-05-09T11:45:12.907Z,34.45
2018-05-09T11:46:12.878Z,34.60
2018-05-09T11:47:12.847Z,34.48
2018-05-09T11:48:12.850Z,34.42
2018-05-09T11:49:12.841Z,34.45
2018-05-09T11:50:12.811Z,34.76
2018-05-09T11:51:12.803Z,34.62
2018-05-09T11:52:12.785Z,34.25
2018-05-09T11:53:12.936Z,33.66
2018-05-09T11:54:12.773Z,33.52
2018-05-09T11:55:12.754Z,33.30
2018-05-09T11:56:12.730Z,33.66
2018-05-09T11:57:12.688Z,34.00
2018-05-09T11:58:12.694Z,34.32
2018-05-09T11:59:12.693Z,34.07
2018-05-09T12:00:12.658Z,33.32
2018-05-09T12:01:12.667Z,33.69
2018-05-09T12:02:14.663Z,33.74
2018-05-09T12:03:14.578Z,33.79
2018-05-09T12:04:12.639Z,34.29
2018-05-09T12:05:12.622Z,34.53
2018-05-09T12:06:12.601Z,33.98
2018-05-09T12:07:14.562Z,33.81
2018-05-09T12:08:12.575Z,34.20
2018-05-09T12:09:12.587Z,34.76
2018-05-09T12:10:12.557Z,35.04
2018-05-09T12:11:14.063Z,34.91
2018-05-09T12:12:12.596Z,34.86
2018-05-09T12:13:12.519Z,35.05
2018-05-09T12:14:12.504Z,35.09
2018-05-09T12:15:12.522Z,35.41
2018-05-09T12:16:12.469Z,35.72
2018-05-09T12:17:12.459Z,35.38
2018-05-09T12:18:12.484Z,35.44
2018-05-09T12:19:12.448Z,35.28
2018-05-09T12:20:12.452Z,35.26
2018-05-09T12:21:12.429Z,35.34
2018-05-09T12:22:14.064Z,34.73
2018-05-09T12:23:12.428Z,34.01
2018-05-09T12:24:12.397Z,34.72
2018-05-09T12:25:12.389Z,35.17
2018-05-09T12:26:12.376Z,35.66
2018-05-09T12:27:12.371Z,34.45
2018-05-09T12:28:14.069Z,33.35
2018-05-09T12:29:12.333Z,33.49
2018-05-09T12:30:12.338Z,33.41
2018-05-09T12:31:12.328Z,33.33
2018-05-09T12:32:12.274Z,33.13
2018-05-09T12:33:12.305Z,33.76
2018-05-09T12:34:12.316Z,34.20
2018-05-09T12:35:12.304Z,34.45
2018-05-09T12:36:14.078Z,35.13
2018-05-09T12:37:12.263Z,35.42
2018-05-09T12:38:12.269Z,35.58
2018-05-09T12:39:12.221Z,36.00
2018-05-09T12:40:12.224Z,35.76
2018-05-09T12:41:12.215Z,35.26
2018-05-09T12:42:12.201Z,35.14
2018-05-09T12:43:12.205Z,35.28
2018-05-09T12:44:12.185Z,35.09
2018-05-09T12:45:14.076Z,34.78
2018-05-09T12:46:12.167Z,34.57
2018-05-09T12:47:12.185Z,34.72
2018-05-09T12:48:12.152Z,34.90
2018-05-09T12:49:12.123Z,34.95
2018-05-09T12:50:12.131Z,35.48
2018-05-09T12:51:12.138Z,35.56
2018-05-09T12:52:12.126Z,35.68